sensor_id;sensor_type;location;lat;lon;timestamp;pressure;altitude;pressure_sealevel;temperature;humidity
9035;BME280;4552;43.422;24.592;2023-01-28T05:49:09;99792.13;;;1.83;100.00
9035;BME280;4552;43.422;24.592;2023-01-28T05:51:39;99791.19;;;1.79;100.00
9035;BME280;4552;43.422;24.592;2023-01-28T05:54:07;99779.78;;;1.68;100.00
9035;BME280;4552;43.422;24.592;2023-01-28T05:56:35;99779.16;;;1.80;100.00
9035;BME280;4552;43.422;24.592;2023-01-28T05:59:03;99787.94;;;1.91;100.00
9035;BME280;4552;43.422;24.592;2023-01-28T06:01:32;99786.22;;;1.90;100.00
9035;BME280;4552;43.422;24.592;2023-01-28T06:03:59;99804.44;;;1.99;100.00
9035;BME280;4552;43.422;24.592;2023-01-28T06:06:29;99790.28;;;1.79;100.00
9035;BME280;4552;43.422;24.592;2023-01-28T06:08:57;99797.31;;;1.86;100.00
9035;BME280;4552;43.422;24.592;2023-01-28T06:11:26;99815.69;;;2.03;100.00
9035;BME280;4552;43.422;24.592;2023-01-28T06:13:56;99823.28;;;1.95;100.00
9035;BME280;4552;43.422;24.592;2023-01-28T06:16:23;99824.34;;;2.05;100.00
9035;BME280;4552;43.422;24.592;2023-01-28T06:18:54;99825.25;;;2.08;100.00
9035;BME280;4552;43.422;24.592;2023-01-28T06:21:36;99809.38;;;1.87;100.00
9035;BME280;4552;43.422;24.592;2023-01-28T06:24:06;99807.53;;;1.80;100.00
9035;BME280;4552;43.422;24.592;2023-01-28T06:26:44;99832.72;;;1.95;100.00
9035;BME280;4552;43.422;24.592;2023-01-28T06:29:12;99832.75;;;1.96;100.00
9035;BME280;4552;43.422;24.592;2023-01-28T06:37:07;99810.16;;;1.83;100.00
9035;BME280;4552;43.422;24.592;2023-01-28T06:39:50;99837.97;;;1.99;100.00
9035;BME280;4552;43.422;24.592;2023-01-28T06:42:49;99841.63;;;2.10;100.00
9035;BME280;4552;43.422;24.592;2023-01-28T06:45:20;99825.13;;;2.02;100.00
9035;BME280;4552;43.422;24.592;2023-01-28T06:47:53;99837.16;;;2.00;100.00
9035;BME280;4552;43.422;24.592;2023-01-28T06:50:50;99830.19;;;1.96;100.00
9035;BME280;4552;43.422;24.592;2023-01-28T06:53:26;99835.44;;;2.02;100.00
9035;BME280;4552;43.422;24.592;2023-01-28T06:56:00;99843.34;;;2.10;100.00
9035;BME280;4552;43.422;24.592;2023-01-28T06:58:41;99844.16;;;2.07;100.00
9035;BME280;4552;43.422;24.592;2023-01-28T07:01:11;99846.72;;;2.06;100.00
9035;BME280;4552;43.422;24.592;2023-01-28T07:03:42;99830.28;;;2.02;100.00
9035;BME280;4552;43.422;24.592;2023-01-28T07:06:10;99830.00;;;1.87;100.00
9035;BME280;4552;43.422;24.592;2023-01-28T07:08:39;99841.91;;;1.80;100.00
9035;BME280;4552;43.422;24.592;2023-01-28T07:11:06;99834.00;;;1.71;100.00
9035;BME280;4552;43.422;24.592;2023-01-28T07:13:33;99842.13;;;1.91;100.00
9035;BME280;4552;43.422;24.592;2023-01-28T07:16:02;99850.94;;;2.02;100.00
9035;BME280;4552;43.422;24.592;2023-01-28T07:18:33;99847.47;;;2.00;100.00
9035;BME280;4552;43.422;24.592;2023-01-28T07:21:13;99847.38;;;1.94;100.00
9035;BME280;4552;43.422;24.592;2023-01-28T07:23:42;99862.13;;;2.03;100.00
9035;BME280;4552;43.422;24.592;2023-01-28T07:26:12;99875.06;;;2.04;100.00
9035;BME280;4552;43.422;24.592;2023-01-28T07:28:46;99866.53;;;2.08;100.00
9035;BME280;4552;43.422;24.592;2023-01-28T07:31:25;99867.81;;;2.31;100.00
9035;BME280;4552;43.422;24.592;2023-01-28T07:34:02;99873.59;;;2.17;100.00
9035;BME280;4552;43.422;24.592;2023-01-28T07:36:37;99868.34;;;2.12;100.00
9035;BME280;4552;43.422;24.592;2023-01-28T07:39:11;99878.72;;;2.15;100.00
9035;BME280;4552;43.422;24.592;2023-01-28T07:41:43;99868.72;;;2.33;100.00
9035;BME280;4552;43.422;24.592;2023-01-28T07:44:10;99860.03;;;2.28;100.00
9035;BME280;4552;43.422;24.592;2023-01-28T07:46:50;99886.09;;;2.42;100.00
9035;BME280;4552;43.422;24.592;2023-01-28T07:49:18;99880.44;;;2.62;100.00
9035;BME280;4552;43.422;24.592;2023-01-28T07:51:47;99869.84;;;2.47;100.00
9035;BME280;4552;43.422;24.592;2023-01-28T07:54:19;99865.66;;;2.55;100.00
9035;BME280;4552;43.422;24.592;2023-01-28T07:56:49;99895.31;;;2.78;100.00
9035;BME280;4552;43.422;24.592;2023-01-28T07:59:16;99897.75;;;2.69;100.00
9035;BME280;4552;43.422;24.592;2023-01-28T08:01:43;99898.75;;;2.77;100.00
9035;BME280;4552;43.422;24.592;2023-01-28T08:04:18;99870.13;;;2.64;100.00
9035;BME280;4552;43.422;24.592;2023-01-28T08:06:58;99871.69;;;2.56;100.00
9035;BME280;4552;43.422;24.592;2023-01-28T08:09:39;99889.84;;;2.60;100.00
9035;BME280;4552;43.422;24.592;2023-01-28T08:12:32;99870.94;;;2.61;100.00
9035;BME280;4552;43.422;24.592;2023-01-28T08:15:01;99893.50;;;2.71;100.00
9035;BME280;4552;43.422;24.592;2023-01-28T08:17:35;99879.53;;;2.60;100.00
9035;BME280;4552;43.422;24.592;2023-01-28T08:20:03;99903.84;;;2.71;100.00
9035;BME280;4552;43.422;24.592;2023-01-28T08:22:41;99899.41;;;2.63;100.00
9035;BME280;4552;43.422;24.592;2023-01-28T08:25:38;99879.94;;;2.34;100.00
9035;BME280;4552;43.422;24.592;2023-01-28T08:28:19;99912.03;;;2.49;100.00
9035;BME280;4552;43.422;24.592;2023-01-28T08:33:58;99897.09;;;2.79;100.00
9035;BME280;4552;43.422;24.592;2023-01-28T08:36:28;99926.84;;;3.08;100.00
9035;BME280;4552;43.422;24.592;2023-01-28T08:39:01;99915.59;;;3.06;100.00
9035;BME280;4552;43.422;24.592;2023-01-28T08:41:45;99918.09;;;3.00;100.00
9035;BME280;4552;43.422;24.592;2023-01-28T08:44:12;99902.91;;;2.68;100.00
9035;BME280;4552;43.422;24.592;2023-01-28T08:46:39;99918.97;;;2.99;100.00
9035;BME280;4552;43.422;24.592;2023-01-28T08:49:06;99919.88;;;3.04;100.00
9035;BME280;4552;43.422;24.592;2023-01-28T08:51:33;99919.69;;;2.92;100.00
9035;BME280;4552;43.422;24.592;2023-01-28T08:54:02;99922.75;;;2.69;100.00
9035;BME280;4552;43.422;24.592;2023-01-28T08:56:29;99891.47;;;2.55;100.00
9035;BME280;4552;43.422;24.592;2023-01-28T08:59:14;99890.00;;;2.69;100.00
9035;BME280;4552;43.422;24.592;2023-01-28T09:01:58;99923.06;;;2.88;100.00
9035;BME280;4552;43.422;24.592;2023-01-28T09:04:26;99915.59;;;3.06;100.00
9035;BME280;4552;43.422;24.592;2023-01-28T09:06:54;99911.50;;;3.19;100.00
9035;BME280;4552;43.422;24.592;2023-01-28T09:09:22;99905.75;;;3.39;100.00
9035;BME280;4552;43.422;24.592;2023-01-28T09:11:51;99920.94;;;3.77;100.00
9035;BME280;4552;43.422;24.592;2023-01-28T09:14:20;99920.38;;;3.99;100.00
9035;BME280;4552;43.422;24.592;2023-01-28T09:16:46;99908.09;;;3.84;100.00
9035;BME280;4552;43.422;24.592;2023-01-28T09:19:13;99925.75;;;4.15;100.00
9035;BME280;4552;43.422;24.592;2023-01-28T09:21:41;99928.31;;;4.14;96.84
9035;BME280;4552;43.422;24.592;2023-01-28T09:24:10;99928.22;;;4.06;98.34
9035;BME280;4552;43.422;24.592;2023-01-28T09:26:37;99923.88;;;4.07;98.21
9035;BME280;4552;43.422;24.592;2023-01-28T09:29:07;99910.72;;;3.87;98.36
9035;BME280;4552;43.422;24.592;2023-01-28T09:31:36;99921.94;;;3.86;99.48
9035;BME280;4552;43.422;24.592;2023-01-28T09:34:04;99919.28;;;3.82;99.05
9035;BME280;4552;43.422;24.592;2023-01-28T09:36:31;99914.25;;;3.94;100.00
9035;BME280;4552;43.422;24.592;2023-01-28T09:38:58;99924.78;;;4.07;99.21
9035;BME280;4552;43.422;24.592;2023-01-28T09:41:27;99924.69;;;4.00;98.62
9035;BME280;4552;43.422;24.592;2023-01-28T09:44:04;99918.16;;;4.33;98.92
9035;BME280;4552;43.422;24.592;2023-01-28T09:46:34;99917.13;;;4.18;97.84
9035;BME280;4552;43.422;24.592;2023-01-28T09:49:31;99924.13;;;4.25;99.08
9035;BME280;4552;43.422;24.592;2023-01-28T09:52:03;99903.16;;;4.05;99.35
9035;BME280;4552;43.422;24.592;2023-01-28T09:54:36;99911.63;;;3.89;100.00
9035;BME280;4552;43.422;24.592;2023-01-28T09:57:13;99921.69;;;3.68;100.00
9035;BME280;4552;43.422;24.592;2023-01-28T09:59:45;99925.03;;;3.61;100.00
9035;BME280;4552;43.422;24.592;2023-01-28T10:02:26;99927.47;;;3.50;100.00
9035;BME280;4552;43.422;24.592;2023-01-28T10:05:06;99924.13;;;3.56;100.00
9035;BME280;4552;43.422;24.592;2023-01-28T10:07:50;99890.72;;;3.74;100.00
9035;BME280;4552;43.422;24.592;2023-01-28T10:10:26;99885.16;;;3.45;100.00
9035;BME280;4552;43.422;24.592;2023-01-28T10:13:05;99923.84;;;3.39;100.00
9035;BME280;4552;43.422;24.592;2023-01-28T10:15:49;99914.53;;;3.50;100.00
9035;BME280;4552;43.422;24.592;2023-01-28T10:18:28;99906.56;;;3.35;100.00
9035;BME280;4552;43.422;24.592;2023-01-28T10:21:04;99898.91;;;3.43;100.00
9035;BME280;4552;43.422;24.592;2023-01-28T10:23:44;99889.66;;;3.60;100.00
9035;BME280;4552;43.422;24.592;2023-01-28T10:26:21;99902.84;;;3.78;100.00
9035;BME280;4552;43.422;24.592;2023-01-28T10:28:54;99919.34;;;3.86;100.00
9035;BME280;4552;43.422;24.592;2023-01-28T10:31:30;99910.50;;;3.71;100.00
9035;BME280;4552;43.422;24.592;2023-01-28T10:33:59;99922.47;;;3.63;100.00
9035;BME280;4552;43.422;24.592;2023-01-28T10:36:46;99909.53;;;3.64;100.00
9035;BME280;4552;43.422;24.592;2023-01-28T10:39:14;99918.81;;;3.48;100.00
9035;BME280;4552;43.422;24.592;2023-01-28T10:41:44;99897.16;;;3.39;100.00
9035;BME280;4552;43.422;24.592;2023-01-28T10:44:15;99901.31;;;3.29;100.00
9035;BME280;4552;43.422;24.592;2023-01-28T10:46:47;99891.66;;;3.19;100.00
9035;BME280;4552;43.422;24.592;2023-01-28T10:49:26;99917.16;;;3.53;100.00
9035;BME280;4552;43.422;24.592;2023-01-28T10:51:55;99891.94;;;3.37;100.00
9035;BME280;4552;43.422;24.592;2023-01-28T10:54:37;99910.19;;;3.46;100.00
9035;BME280;4552;43.422;24.592;2023-01-28T10:57:11;99910.06;;;3.37;100.00
9035;BME280;4552;43.422;24.592;2023-01-28T10:59:39;99882.19;;;3.20;100.00
9035;BME280;4552;43.422;24.592;2023-01-28T11:02:24;99912.81;;;3.49;100.00
9035;BME280;4552;43.422;24.592;2023-01-28T11:05:01;99901.56;;;3.47;100.00
9035;BME280;4552;43.422;24.592;2023-01-28T11:07:31;99913.69;;;3.51;100.00
9035;BME280;4552;43.422;24.592;2023-01-28T11:10:02;99914.44;;;3.43;100.00
9035;BME280;4552;43.422;24.592;2023-01-28T11:12:32;99887.41;;;3.21;100.00
9035;BME280;4552;43.422;24.592;2023-01-28T11:15:01;99900.25;;;3.17;100.00
9035;BME280;4552;43.422;24.592;2023-01-28T11:17:32;99895.69;;;2.99;100.00
9035;BME280;4552;43.422;24.592;2023-01-28T11:20:09;99885.50;;;3.08;100.00
9035;BME280;4552;43.422;24.592;2023-01-28T11:22:41;99904.78;;;3.31;100.00
9035;BME280;4552;43.422;24.592;2023-01-28T11:25:26;99895.13;;;3.20;100.00
9035;BME280;4552;43.422;24.592;2023-01-28T11:27:54;99898.66;;;3.25;100.00
9035;BME280;4552;43.422;24.592;2023-01-28T11:30:24;99881.28;;;3.18;100.00
9035;BME280;4552;43.422;24.592;2023-01-28T11:32:57;99876.25;;;3.25;100.00
9035;BME280;4552;43.422;24.592;2023-01-28T11:35:26;99902.91;;;3.21;100.00
9035;BME280;4552;43.422;24.592;2023-01-28T11:37:58;99879.66;;;3.23;100.00
9035;BME280;4552;43.422;24.592;2023-01-28T11:40:31;99910.91;;;3.38;100.00
9035;BME280;4552;43.422;24.592;2023-01-28T11:43:00;99894.72;;;3.51;100.00
9035;BME280;4552;43.422;24.592;2023-01-28T11:45:34;99884.50;;;3.62;100.00
9035;BME280;4552;43.422;24.592;2023-01-28T11:48:19;99881.66;;;3.42;100.00
9035;BME280;4552;43.422;24.592;2023-01-28T11:51:02;99887.53;;;3.32;100.00
9035;BME280;4552;43.422;24.592;2023-01-28T11:53:56;99888.50;;;3.37;100.00
9035;BME280;4552;43.422;24.592;2023-01-28T11:56:45;99887.25;;;3.12;100.00
9035;BME280;4552;43.422;24.592;2023-01-28T11:59:28;99896.84;;;3.19;100.00
9035;BME280;4552;43.422;24.592;2023-01-28T12:02:05;99908.88;;;3.16;100.00
9035;BME280;4552;43.422;24.592;2023-01-28T12:04:49;99885.63;;;3.17;100.00
9035;BME280;4552;43.422;24.592;2023-01-28T12:07:32;99906.47;;;3.29;100.00
9035;BME280;4552;43.422;24.592;2023-01-28T12:10:27;99911.00;;;3.44;100.00
9035;BME280;4552;43.422;24.592;2023-01-28T12:13:22;99884.13;;;3.33;100.00
9035;BME280;4552;43.422;24.592;2023-01-28T12:16:07;99892.81;;;3.39;100.00
9035;BME280;4552;43.422;24.592;2023-01-28T12:18:59;99896.97;;;3.27;100.00
9035;BME280;4552;43.422;24.592;2023-01-28T12:21:46;99905.66;;;3.32;100.00
9035;BME280;4552;43.422;24.592;2023-01-28T12:24:33;99908.97;;;3.23;100.00
9035;BME280;4552;43.422;24.592;2023-01-28T12:27:22;99909.97;;;3.31;100.00
9035;BME280;4552;43.422;24.592;2023-01-28T12:30:00;99871.78;;;3.15;100.00
9035;BME280;4552;43.422;24.592;2023-01-28T12:32:48;99898.16;;;3.51;100.00
9035;BME280;4552;43.422;24.592;2023-01-28T12:35:53;99917.94;;;3.45;100.00
9035;BME280;4552;43.422;24.592;2023-01-28T12:38:34;99902.16;;;3.27;100.00
9035;BME280;4552;43.422;24.592;2023-01-28T12:41:08;99917.69;;;3.28;100.00
9035;BME280;4552;43.422;24.592;2023-01-28T12:43:57;99912.56;;;3.33;100.00
9035;BME280;4552;43.422;24.592;2023-01-28T12:46:37;99923.78;;;3.33;100.00
9035;BME280;4552;43.422;24.592;2023-01-28T12:49:11;99921.28;;;3.41;100.00
9035;BME280;4552;43.422;24.592;2023-01-28T12:51:50;99916.69;;;3.20;100.00
9035;BME280;4552;43.422;24.592;2023-01-28T12:54:23;99903.69;;;3.16;100.00
9035;BME280;4552;43.422;24.592;2023-01-28T12:56:55;99903.06;;;3.32;100.00
9035;BME280;4552;43.422;24.592;2023-01-28T12:59:31;99920.56;;;3.49;100.00
9035;BME280;4552;43.422;24.592;2023-01-28T13:02:28;99931.44;;;3.27;100.00
9035;BME280;4552;43.422;24.592;2023-01-28T13:05:03;99907.47;;;2.82;100.00
9035;BME280;4552;43.422;24.592;2023-01-28T13:07:40;99896.56;;;3.01;100.00
9035;BME280;4552;43.422;24.592;2023-01-28T13:10:17;99936.63;;;3.27;100.00
9035;BME280;4552;43.422;24.592;2023-01-28T13:12:48;99908.88;;;3.16;100.00
9035;BME280;4552;43.422;24.592;2023-01-28T13:15:21;99945.13;;;3.19;100.00
9035;BME280;4552;43.422;24.592;2023-01-28T13:17:56;99906.94;;;3.03;100.00
9035;BME280;4552;43.422;24.592;2023-01-28T13:23:37;99924.03;;;2.93;100.00
9035;BME280;4552;43.422;24.592;2023-01-28T13:26:42;99917.34;;;3.09;100.00
9035;BME280;4552;43.422;24.592;2023-01-28T13:29:58;99914.06;;;3.17;100.00
9035;BME280;4552;43.422;24.592;2023-01-28T13:39:25;99917.91;;;2.88;100.00
9035;BME280;4552;43.422;24.592;2023-01-28T13:42:29;99931.28;;;2.66;100.00
9035;BME280;4552;43.422;24.592;2023-01-28T13:45:21;99943.44;;;2.70;100.00
9035;BME280;4552;43.422;24.592;2023-01-28T13:51:18;99964.97;;;2.72;100.00
9035;BME280;4552;43.422;24.592;2023-01-28T13:53:54;99967.41;;;2.63;100.00
9035;BME280;4552;43.422;24.592;2023-01-28T13:56:26;99943.03;;;2.49;100.00
9035;BME280;4552;43.422;24.592;2023-01-28T13:59:13;99939.56;;;2.47;100.00
9035;BME280;4552;43.422;24.592;2023-01-28T14:02:15;99961.22;;;2.55;100.00
9035;BME280;4552;43.422;24.592;2023-01-28T14:05:26;99970.84;;;2.62;100.00
9035;BME280;4552;43.422;24.592;2023-01-28T14:08:42;99972.59;;;2.65;100.00
9035;BME280;4552;43.422;24.592;2023-01-28T14:39:09;99956.25;;;2.64;100.00
9035;BME280;4552;43.422;24.592;2023-01-28T14:41:42;99962.16;;;2.59;100.00
9035;BME280;4552;43.422;24.592;2023-01-28T14:44:26;99957.75;;;2.52;100.00
9035;BME280;4552;43.422;24.592;2023-01-28T14:47:17;99968.25;;;2.62;100.00
9035;BME280;4552;43.422;24.592;2023-01-28T14:50:04;99994.22;;;2.70;100.00
9035;BME280;4552;43.422;24.592;2023-01-28T14:52:54;99965.34;;;2.44;100.00
9035;BME280;4552;43.422;24.592;2023-01-28T14:55:34;99961.63;;;2.30;100.00
9035;BME280;4552;43.422;24.592;2023-01-28T14:58:13;99974.75;;;2.42;100.00
9035;BME280;4552;43.422;24.592;2023-01-28T15:01:03;99991.22;;;2.47;100.00
9035;BME280;4552;43.422;24.592;2023-01-28T15:03:51;99979.19;;;2.49;100.00
9035;BME280;4552;43.422;24.592;2023-01-28T15:06:36;99966.91;;;2.36;100.00
9035;BME280;4552;43.422;24.592;2023-01-28T15:09:17;99970.34;;;2.35;100.00
9035;BME280;4552;43.422;24.592;2023-01-28T15:12:07;100000.72;;;2.50;100.00
9035;BME280;4552;43.422;24.592;2023-01-28T15:15:09;99971.13;;;2.33;100.00
9035;BME280;4552;43.422;24.592;2023-01-28T15:17:42;99997.28;;;2.51;100.00
9035;BME280;4552;43.422;24.592;2023-01-28T15:20:17;99983.16;;;2.31;100.00
9035;BME280;4552;43.422;24.592;2023-01-28T15:22:51;99981.28;;;2.24;100.00
9035;BME280;4552;43.422;24.592;2023-01-28T15:25:22;99981.97;;;2.15;100.00
9035;BME280;4552;43.422;24.592;2023-01-28T15:28:21;100004.41;;;2.19;100.00
9035;BME280;4552;43.422;24.592;2023-01-28T15:30:52;100003.78;;;2.29;100.00
9035;BME280;4552;43.422;24.592;2023-01-28T15:33:23;99982.38;;;1.93;100.00
9035;BME280;4552;43.422;24.592;2023-01-28T15:35:52;99988.50;;;1.98;100.00
9035;BME280;4552;43.422;24.592;2023-01-28T15:38:21;100002.41;;;2.05;100.00
9035;BME280;4552;43.422;24.592;2023-01-28T15:41:05;100010.34;;;2.14;100.00
9035;BME280;4552;43.422;24.592;2023-01-28T15:43:50;99989.97;;;2.27;100.00
9035;BME280;4552;43.422;24.592;2023-01-28T15:46:19;100004.47;;;2.22;100.00
9035;BME280;4552;43.422;24.592;2023-01-28T15:49:03;99988.75;;;2.10;100.00
9035;BME280;4552;43.422;24.592;2023-01-28T15:51:37;100001.00;;;2.20;100.00
9035;BME280;4552;43.422;24.592;2023-01-28T15:54:18;100016.41;;;2.17;100.00
9035;BME280;4552;43.422;24.592;2023-01-28T15:56:47;99997.09;;;1.97;100.00
9035;BME280;4552;43.422;24.592;2023-01-28T15:59:26;100038.13;;;2.27;100.00
9035;BME280;4552;43.422;24.592;2023-01-28T16:02:18;100038.88;;;2.21;100.00
9035;BME280;4552;43.422;24.592;2023-01-28T16:05:00;100007.19;;;1.88;100.00
9035;BME280;4552;43.422;24.592;2023-01-28T16:07:48;100035.41;;;2.19;100.00
9035;BME280;4552;43.422;24.592;2023-01-28T16:10:19;100024.25;;;2.22;100.00
9035;BME280;4552;43.422;24.592;2023-01-28T16:19:29;100044.59;;;2.07;100.00
9035;BME280;4552;43.422;24.592;2023-01-28T16:21:57;100009.97;;;1.96;100.00
9035;BME280;4552;43.422;24.592;2023-01-28T16:24:50;100016.09;;;2.02;100.00
9035;BME280;4552;43.422;24.592;2023-01-28T16:27:26;100017.13;;;2.10;100.00
9035;BME280;4552;43.422;24.592;2023-01-28T16:45:50;100055.72;;;2.04;100.00
9035;BME280;4552;43.422;24.592;2023-01-28T16:48:18;100065.66;;;2.25;100.00
9035;BME280;4552;43.422;24.592;2023-01-28T16:50:46;100064.00;;;2.30;100.00
9035;BME280;4552;43.422;24.592;2023-01-28T16:53:26;100046.47;;;2.14;100.00
9035;BME280;4552;43.422;24.592;2023-01-28T16:55:54;100052.56;;;2.17;100.00
9035;BME280;4552;43.422;24.592;2023-01-28T16:58:25;100056.19;;;2.25;100.00
9035;BME280;4552;43.422;24.592;2023-01-28T17:00:56;100071.00;;;2.34;100.00
9035;BME280;4552;43.422;24.592;2023-01-28T17:09:03;100061.22;;;2.19;100.00
9035;BME280;4552;43.422;24.592;2023-01-28T17:11:31;100045.38;;;2.03;100.00
9035;BME280;4552;43.422;24.592;2023-01-28T17:13:59;100056.69;;;2.09;100.00
9035;BME280;4552;43.422;24.592;2023-01-28T17:16:44;100063.59;;;2.10;100.00
9035;BME280;4552;43.422;24.592;2023-01-28T17:19:12;100064.50;;;2.12;100.00
9035;BME280;4552;43.422;24.592;2023-01-28T17:21:53;100084.84;;;2.39;100.00
9035;BME280;4552;43.422;24.592;2023-01-28T17:24:20;100075.13;;;2.26;100.00
9035;BME280;4552;43.422;24.592;2023-01-28T17:27:05;100060.91;;;2.06;100.00
9035;BME280;4552;43.422;24.592;2023-01-28T17:30:11;100047.94;;;2.03;100.00
9035;BME280;4552;43.422;24.592;2023-01-28T17:32:50;100089.13;;;2.35;100.00
9035;BME280;4552;43.422;24.592;2023-01-28T17:35:22;100091.53;;;2.28;100.00
9035;BME280;4552;43.422;24.592;2023-01-28T17:37:51;100048.53;;;1.91;100.00
9035;BME280;4552;43.422;24.592;2023-01-28T17:40:32;100051.50;;;2.08;100.00
9035;BME280;4552;43.422;24.592;2023-01-28T17:43:04;100066.19;;;2.10;100.00
9035;BME280;4552;43.422;24.592;2023-01-28T17:45:44;100093.13;;;2.23;100.00
9035;BME280;4552;43.422;24.592;2023-01-28T17:48:14;100074.00;;;2.13;100.00
9035;BME280;4552;43.422;24.592;2023-01-28T17:50:44;100082.75;;;2.20;100.00
9035;BME280;4552;43.422;24.592;2023-01-28T17:53:11;100086.91;;;2.13;100.00
9035;BME280;4552;43.422;24.592;2023-01-28T17:55:38;100080.66;;;2.04;100.00
9035;BME280;4552;43.422;24.592;2023-01-28T17:58:07;100070.13;;;1.95;100.00
9035;BME280;4552;43.422;24.592;2023-01-28T18:00:48;100094.50;;;2.07;100.00
9035;BME280;4552;43.422;24.592;2023-01-28T18:06:18;100097.91;;;2.05;100.00
9035;BME280;4552;43.422;24.592;2023-01-28T18:09:02;100098.84;;;2.10;100.00
9035;BME280;4552;43.422;24.592;2023-01-28T18:12:04;100070.19;;;1.98;100.00
9035;BME280;4552;43.422;24.592;2023-01-28T18:14:46;100077.06;;;1.96;100.00
9035;BME280;4552;43.422;24.592;2023-01-28T18:17:31;100072.59;;;1.90;100.00
9035;BME280;4552;43.422;24.592;2023-01-28T18:20:04;100072.66;;;1.93;100.00
9035;BME280;4552;43.422;24.592;2023-01-28T18:22:57;100074.34;;;1.91;100.00
9035;BME280;4552;43.422;24.592;2023-01-28T18:25:40;100094.41;;;2.03;100.00
9035;BME280;4552;43.422;24.592;2023-01-28T18:28:13;100117.88;;;2.13;100.00
9035;BME280;4552;43.422;24.592;2023-01-28T18:30:43;100120.56;;;2.18;100.00
9035;BME280;4552;43.422;24.592;2023-01-28T18:33:13;100114.63;;;2.23;100.00
9035;BME280;4552;43.422;24.592;2023-01-28T18:35:47;100088.41;;;2.05;100.00
9035;BME280;4552;43.422;24.592;2023-01-28T18:38:55;100083.88;;;1.94;100.00
9035;BME280;4552;43.422;24.592;2023-01-28T18:41:50;100125.50;;;2.09;100.00
9035;BME280;4552;43.422;24.592;2023-01-28T18:44:31;100117.81;;;2.10;100.00
9035;BME280;4552;43.422;24.592;2023-01-28T18:47:16;100125.44;;;2.06;100.00
9035;BME280;4552;43.422;24.592;2023-01-28T18:49:53;100128.06;;;2.07;100.00
9035;BME280;4552;43.422;24.592;2023-01-28T18:52:54;100092.31;;;1.88;100.00
9035;BME280;4552;43.422;24.592;2023-01-28T18:55:38;100131.47;;;2.06;100.00
9035;BME280;4552;43.422;24.592;2023-01-28T18:58:08;100112.44;;;2.01;100.00
9035;BME280;4552;43.422;24.592;2023-01-28T19:00:37;100130.56;;;2.04;100.00
9035;BME280;4552;43.422;24.592;2023-01-28T19:03:06;100125.44;;;2.06;100.00
9035;BME280;4552;43.422;24.592;2023-01-28T19:05:44;100095.81;;;1.90;100.00
9035;BME280;4552;43.422;24.592;2023-01-28T19:08:38;100129.75;;;2.07;100.00
9035;BME280;4552;43.422;24.592;2023-01-28T19:17:41;100120.56;;;1.82;100.00
9035;BME280;4552;43.422;24.592;2023-01-28T19:20:27;100132.72;;;1.86;100.00
9035;BME280;4552;43.422;24.592;2023-01-28T19:25:48;100107.13;;;1.59;100.00
9035;BME280;4552;43.422;24.592;2023-01-28T19:43:16;100137.53;;;1.71;100.00
9035;BME280;4552;43.422;24.592;2023-01-28T19:48:38;100108.72;;;1.54;100.00
9035;BME280;4552;43.422;24.592;2023-01-28T19:51:10;100119.00;;;1.53;100.00
9035;BME280;4552;43.422;24.592;2023-01-28T19:53:53;100122.41;;;1.52;100.00
9035;BME280;4552;43.422;24.592;2023-01-28T19:56:28;100146.00;;;1.67;100.00
9035;BME280;4552;43.422;24.592;2023-01-28T19:59:03;100114.63;;;1.50;100.00
9035;BME280;4552;43.422;24.592;2023-01-28T20:01:32;100126.03;;;1.58;100.00
9035;BME280;4552;43.422;24.592;2023-01-28T20:04:01;100133.84;;;1.61;100.00
9035;BME280;4552;43.422;24.592;2023-01-28T20:06:34;100155.72;;;1.77;100.00
9035;BME280;4552;43.422;24.592;2023-01-28T20:09:06;100152.03;;;1.67;100.00
9035;BME280;4552;43.422;24.592;2023-01-28T20:11:34;100157.31;;;1.72;100.00
9035;BME280;4552;43.422;24.592;2023-01-28T20:17:44;100151.22;;;1.70;100.00
9035;BME280;4552;43.422;24.592;2023-01-28T20:20:12;100150.44;;;1.72;100.00
9035;BME280;4552;43.422;24.592;2023-01-28T20:22:41;100152.16;;;1.72;100.00
9035;BME280;4552;43.422;24.592;2023-01-28T20:25:15;100166.03;;;1.77;100.00
9035;BME280;4552;43.422;24.592;2023-01-28T20:27:59;100147.75;;;1.68;100.00
9035;BME280;4552;43.422;24.592;2023-01-28T20:30:31;100162.41;;;1.69;100.00
9035;BME280;4552;43.422;24.592;2023-01-28T20:36:29;100160.53;;;1.63;100.00
9035;BME280;4552;43.422;24.592;2023-01-28T20:39:15;100137.84;;;1.50;100.00
9035;BME280;4552;43.422;24.592;2023-01-28T20:41:46;100153.63;;;1.62;100.00
9035;BME280;4552;43.422;24.592;2023-01-28T20:44:18;100138.75;;;1.52;100.00
9035;BME280;4552;43.422;24.592;2023-01-28T20:47:36;100147.44;;;1.56;100.00
9035;BME280;4552;43.422;24.592;2023-01-28T20:50:18;100139.56;;;1.51;100.00
9035;BME280;4552;43.422;24.592;2023-01-28T20:59:27;100176.38;;;1.77;100.00
9035;BME280;4552;43.422;24.592;2023-01-28T21:01:58;100142.53;;;1.65;100.00
9035;BME280;4552;43.422;24.592;2023-01-28T21:23:25;100152.00;;;1.66;100.00
9035;BME280;4552;43.422;24.592;2023-01-28T21:26:09;100191.00;;;1.78;100.00
9035;BME280;4552;43.422;24.592;2023-01-28T21:29:00;100194.28;;;1.71;100.00
9035;BME280;4552;43.422;24.592;2023-01-28T21:31:29;100177.84;;;1.67;100.00
9035;BME280;4552;43.422;24.592;2023-01-28T21:34:01;100184.59;;;1.64;100.00
9035;BME280;4552;43.422;24.592;2023-01-28T21:36:42;100156.53;;;1.42;100.00
9035;BME280;4552;43.422;24.592;2023-01-28T21:39:17;100180.91;;;1.54;100.00
9035;BME280;4552;43.422;24.592;2023-01-28T21:41:52;100174.97;;;1.57;100.00
9035;BME280;4552;43.422;24.592;2023-01-28T21:44:32;100174.59;;;1.42;100.00
9035;BME280;4552;43.422;24.592;2023-01-28T21:47:01;100178.06;;;1.44;100.00
9035;BME280;4552;43.422;24.592;2023-01-28T21:49:30;100186.72;;;1.46;100.00
9035;BME280;4552;43.422;24.592;2023-01-28T21:51:58;100179.75;;;1.42;100.00
9035;BME280;4552;43.422;24.592;2023-01-28T21:59:58;100167.28;;;1.26;100.00
9035;BME280;4552;43.422;24.592;2023-01-28T22:02:28;100198.84;;;1.50;100.00
9035;BME280;4552;43.422;24.592;2023-01-28T22:05:04;100185.06;;;1.48;100.00
9035;BME280;4552;43.422;24.592;2023-01-28T22:07:34;100203.44;;;1.60;100.00
9035;BME280;4552;43.422;24.592;2023-01-28T22:10:18;100167.75;;;1.44;100.00
9035;BME280;4552;43.422;24.592;2023-01-28T22:12:47;100186.16;;;1.57;100.00